Georgios L — SXQK — position and weather

sailwx.info

Track history (hours):
 
Tides and Currents Weather Stations Pressure Air Temp Water Temp Dewpoint Dewpoint Depression Visibility Wind Speed Wind Dir Waves Ship Positions

Georgios L

Last reported at 2018-Feb-18 01:30 UTC. Time now 2018-Feb-18 01:42 UTC.
Position N 37°58' E 023°33'.

Length 86 m; draft 6.3 m.

Type: Tanker. MMSI: 239512000.

Date/timePositionNaut miles runAvg speedWind from/ knotsBaromVisibWave heightAir tempDewpointWater temp
2018-Feb-18 01:30N 37°58' E 023°33'0 0.0
2018-Feb-18 01:01N 37°58' E 023°33'0 0.0
2018-Feb-18 00:31N 37°58' E 023°33'0 0.0
2018-Feb-18 00:01N 37°58' E 023°33'0 0.0
2018-Feb-17 23:30N 37°58' E 023°33'0 0.0
2018-Feb-17 23:00N 37°58' E 023°33'0 0.0
2018-Feb-17 22:30N 37°58' E 023°33'0 0.0
2018-Feb-17 22:01N 37°58' E 023°33'0 0.0
2018-Feb-17 21:30N 37°58' E 023°33'0 0.0
2018-Feb-17 21:00N 37°58' E 023°33'0 0.0
2018-Feb-17 20:30N 37°58' E 023°33'0 0.0
2018-Feb-17 20:00N 37°58' E 023°33'0 0.0
2018-Feb-17 19:31N 37°58' E 023°33'0 0.0
2018-Feb-17 19:00N 37°58' E 023°33'0 0.0
2018-Feb-17 18:30N 37°58' E 023°33'0 0.0
2018-Feb-17 18:01N 37°58' E 023°33'0 0.0
2018-Feb-17 17:30N 37°58' E 023°33'0 0.0
2018-Feb-17 17:00N 37°58' E 023°33'0 0.0
2018-Feb-17 16:30N 37°58' E 023°33'0 0.0
2018-Feb-17 16:00N 37°58' E 023°33'0 0.0
2018-Feb-17 15:30N 37°58' E 023°33'0 0.0
2018-Feb-17 15:00N 37°58' E 023°33'2 3.6
2018-Feb-17 14:30N 37°56' E 023°35'4 7.1
2018-Feb-17 14:00N 37°53' E 023°33'3 6.2
2018-Feb-17 13:30N 37°50' E 023°31'4 6.9
2018-Feb-17 13:00N 37°47' E 023°29'1 1.7
2018-Feb-17 12:30N 37°46' E 023°28'0 0.1
2018-Feb-17 12:00N 37°46' E 023°28'0 0.0
2018-Feb-17 11:30N 37°46' E 023°28'0 0.0
2018-Feb-17 11:00N 37°46' E 023°28'0 0.0
2018-Feb-17 10:30N 37°46' E 023°28'0 0.0
2018-Feb-17 10:00N 37°46' E 023°28'0 0.0
2018-Feb-17 09:30N 37°46' E 023°28'0 0.0
2018-Feb-17 09:00N 37°46' E 023°28'0 0.0
2018-Feb-17 08:30N 37°46' E 023°28'0 0.0
2018-Feb-17 08:00N 37°46' E 023°28'0 0.0
2018-Feb-17 07:30N 37°46' E 023°28'1 2.8
2018-Feb-17 07:00N 37°48' E 023°29'3 6.5
2018-Feb-17 06:30N 37°51' E 023°31'3 6.5
2018-Feb-17 06:01N 37°53' E 023°33'4 7.2
2018-Feb-17 05:30N 37°57' E 023°35'2 3.1
2018-Feb-17 05:00N 37°58' E 023°33'0 0.1
2018-Feb-17 04:30N 37°58' E 023°33'0 0.0
2018-Feb-17 04:00N 37°58' E 023°33'0 0.0
2018-Feb-17 03:30N 37°58' E 023°33'0 0.0
2018-Feb-17 03:00N 37°58' E 023°33'0 0.0
2018-Feb-17 02:31N 37°58' E 023°33'0 0.0
2018-Feb-17 02:00N 37°58' E 023°33'0 0.0
2018-Feb-17 01:30N 37°58' E 023°33'0 0.0
2018-Feb-17 01:00N 37°58' E 023°33'0 0.0
2018-Feb-17 00:30N 37°58' E 023°33'0 0.0
2018-Feb-17 00:00N 37°58' E 023°33'0 0.0
2018-Feb-16 23:31N 37°58' E 023°33'0 0.0
2018-Feb-16 23:00N 37°58' E 023°33'0 0.0
2018-Feb-16 22:31N 37°58' E 023°33'0 0.0
2018-Feb-16 22:00N 37°58' E 023°33'0 0.0
2018-Feb-16 21:30N 37°58' E 023°33'0 0.0
2018-Feb-16 21:01N 37°58' E 023°33'0 0.0
2018-Feb-16 20:31N 37°58' E 023°33'0 0.0
2018-Feb-16 20:01N 37°58' E 023°33'0 0.0
2018-Feb-16 19:31N 37°58' E 023°33'0 0.0
2018-Feb-16 19:01N 37°58' E 023°33'0 0.0
2018-Feb-16 18:30N 37°58' E 023°33'0 0.0
2018-Feb-16 18:00N 37°58' E 023°33'0 0.0
2018-Feb-16 17:31N 37°58' E 023°33'0 0.0
2018-Feb-16 17:01N 37°58' E 023°33'0 0.0
2018-Feb-16 16:30N 37°58' E 023°33'0 0.0
2018-Feb-16 16:00N 37°58' E 023°33'0 0.0
2018-Feb-16 15:31N 37°58' E 023°33'0 0.0
2018-Feb-16 15:00N 37°58' E 023°33'0 0.0
2018-Feb-16 14:30N 37°58' E 023°33'0 0.0
2018-Feb-16 14:01N 37°58' E 023°33'0 0.0
2018-Feb-16 13:31N 37°58' E 023°33'2 3.7
2018-Feb-16 13:01N 37°56' E 023°35'2 3.5
2018-Feb-16 12:31N 37°54' E 023°34'2 4.3
2018-Feb-16 12:01N 37°53' E 023°33'3 5.6
2018-Feb-16 11:31N 37°50' E 023°31'3 6.1
2018-Feb-16 11:00N 37°48' E 023°29'1 2.7
2018-Feb-16 10:30N 37°46' E 023°28'0 0.1
2018-Feb-16 10:00N 37°46' E 023°28'0 0.0
2018-Feb-16 09:30N 37°46' E 023°28'0 0.0
2018-Feb-16 09:01N 37°46' E 023°28'0 0.0
2018-Feb-16 08:31N 37°46' E 023°28'0 0.1
2018-Feb-16 08:01N 37°47' E 023°28'0 0.1
2018-Feb-16 07:30N 37°46' E 023°28'1 1.7
2018-Feb-16 07:01N 37°47' E 023°29'4 7.2
2018-Feb-16 06:30N 37°50' E 023°31'3 6.6
2018-Feb-16 06:00N 37°53' E 023°33'3 6.8
2018-Feb-16 05:31N 37°56' E 023°35'2 3.3
2018-Feb-16 05:00N 37°58' E 023°33'0 0.1
2018-Feb-16 04:30N 37°58' E 023°33'0 0.0
2018-Feb-16 04:00N 37°58' E 023°33'0 0.0
2018-Feb-16 03:30N 37°58' E 023°33'0 0.0
2018-Feb-16 03:01N 37°58' E 023°33'0 0.0
2018-Feb-16 02:31N 37°58' E 023°33'0 0.0
2018-Feb-16 02:00N 37°58' E 023°33'0 0.0
2018-Feb-16 01:31N 37°58' E 023°33'0 0.0
2018-Feb-16 01:00N 37°58' E 023°33'0 0.0
2018-Feb-16 00:31N 37°58' E 023°33'0 0.0
2018-Feb-16 00:00N 37°58' E 023°33'0 0.0
2018-Feb-15 23:31N 37°58' E 023°33'0 0.0
2018-Feb-15 23:01N 37°58' E 023°33'0 0.0
2018-Feb-15 22:30N 37°58' E 023°33'0 0.0
2018-Feb-15 22:01N 37°58' E 023°33'0 0.0
2018-Feb-15 21:30N 37°58' E 023°33'0 0.0
2018-Feb-15 21:00N 37°58' E 023°33'0 0.0
2018-Feb-15 20:31N 37°58' E 023°33'0 0.0
2018-Feb-15 20:01N 37°58' E 023°33'0 0.0
2018-Feb-15 19:30N 37°58' E 023°33'0 0.0
2018-Feb-15 19:00N 37°58' E 023°33'0 0.0
2018-Feb-15 18:30N 37°58' E 023°33'0 0.0
2018-Feb-15 18:01N 37°58' E 023°33'0 0.0
2018-Feb-15 17:30N 37°58' E 023°33'0 0.0
2018-Feb-15 17:01N 37°58' E 023°33'0 0.0
2018-Feb-15 16:30N 37°58' E 023°33'0 0.0
2018-Feb-15 16:01N 37°58' E 023°33'0 0.0
2018-Feb-15 15:31N 37°58' E 023°33'0 0.0
2018-Feb-15 15:00N 37°58' E 023°33'0 0.0
2018-Feb-15 14:31N 37°58' E 023°33'0 0.0
2018-Feb-15 14:01N 37°58' E 023°33'0 0.0
2018-Feb-15 13:31N 37°58' E 023°33'0 0.0
2018-Feb-15 13:00N 37°58' E 023°33'0 0.0
2018-Feb-15 12:30N 37°58' E 023°33'0 0.0
2018-Feb-15 12:01N 37°58' E 023°33'0 0.0
2018-Feb-15 11:30N 37°58' E 023°33'0 0.0
2018-Feb-15 11:00N 37°58' E 023°33'0 0.0
2018-Feb-15 10:31N 37°58' E 023°33'0 0.0
2018-Feb-15 10:00N 37°58' E 023°33'0 0.0
2018-Feb-15 09:31N 37°58' E 023°33'0 0.0
2018-Feb-15 09:01N 37°58' E 023°33'0 0.0
2018-Feb-15 08:30N 37°58' E 023°33'0 0.0
2018-Feb-15 08:00N 37°58' E 023°33'0 0.0
2018-Feb-15 07:30N 37°58' E 023°33'0 0.0
2018-Feb-15 07:01N 37°58' E 023°33'0 0.0
2018-Feb-15 06:30N 37°58' E 023°33'0 0.0
2018-Feb-15 06:00N 37°58' E 023°33'0 0.0
2018-Feb-15 05:31N 37°58' E 023°33'0 0.0
2018-Feb-15 04:56N 37°58' E 023°33'0 0.0
2018-Feb-15 04:30N 37°58' E 023°33'0 0.0
2018-Feb-15 04:00N 37°58' E 023°33'0 0.0
2018-Feb-15 03:30N 37°58' E 023°33'0 0.0
2018-Feb-15 03:00N 37°58' E 023°33'0 0.0
2018-Feb-15 02:26N 37°58' E 023°33'0 0.0
2018-Feb-15 02:00N 37°58' E 023°33'0 0.0
2018-Feb-15 01:30N 37°58' E 023°33'0 0.0
2018-Feb-15 00:59N 37°58' E 023°33'0 0.0
2018-Feb-15 00:30N 37°58' E 023°33'0 0.0
2018-Feb-15 00:00N 37°58' E 023°33'0 0.0
2018-Feb-14 23:30N 37°58' E 023°33'0 0.0
2018-Feb-14 23:00N 37°58' E 023°33'0 0.0
2018-Feb-14 22:30N 37°58' E 023°33'0 0.0
2018-Feb-14 21:57N 37°58' E 023°33'0 0.0
2018-Feb-14 21:27N 37°58' E 023°33'0 0.0
2018-Feb-14 21:00N 37°58' E 023°33'0 0.0
2018-Feb-14 20:30N 37°58' E 023°33'0 0.0
2018-Feb-14 20:00N 37°58' E 023°33'0 0.0
2018-Feb-14 19:30N 37°58' E 023°33'0 0.0
2018-Feb-14 19:00N 37°58' E 023°33'0 0.0
2018-Feb-14 18:30N 37°58' E 023°33'0 0.0
2018-Feb-14 18:00N 37°58' E 023°33'0 0.0
2018-Feb-14 17:30N 37°58' E 023°33'0 0.0
2018-Feb-14 17:00N 37°58' E 023°33'0 0.0
2018-Feb-14 16:30N 37°58' E 023°33'0 0.0
2018-Feb-14 16:00N 37°58' E 023°33'0 0.0
2018-Feb-14 15:30N 37°58' E 023°33'1 2.1
2018-Feb-14 15:00N 37°57' E 023°34'3 6.2
2018-Feb-14 14:30N 37°54' E 023°33'3 7.0
2018-Feb-14 14:00N 37°51' E 023°31'4 7.8
2018-Feb-14 13:30N 37°48' E 023°29'1 2.4
2018-Feb-14 13:00N 37°47' E 023°28'0 0.1
2018-Feb-14 12:30N 37°46' E 023°28'0 0.0
2018-Feb-14 12:00N 37°46' E 023°28'0 0.0
2018-Feb-14 11:30N 37°46' E 023°28'0 0.0
2018-Feb-14 11:00N 37°46' E 023°28'0 0.0
2018-Feb-14 10:30N 37°46' E 023°28'0 0.0
2018-Feb-14 10:00N 37°46' E 023°28'0 0.0
2018-Feb-14 09:30N 37°46' E 023°28'0 0.0
2018-Feb-14 09:00N 37°46' E 023°28'0 0.0
2018-Feb-14 08:30N 37°46' E 023°28'0 0.1
2018-Feb-14 08:00N 37°47' E 023°28'1 1.6
2018-Feb-14 07:30N 37°47' E 023°29'3 6.8
2018-Feb-14 07:00N 37°50' E 023°31'3 6.3
2018-Feb-14 06:30N 37°53' E 023°33'3 6.8
2018-Feb-14 06:00N 37°56' E 023°35'2 4.7
2018-Feb-14 05:30N 37°57' E 023°33'0 0.5
2018-Feb-14 05:00N 37°58' E 023°33'0 0.0
2018-Feb-14 04:30N 37°58' E 023°33'0 0.0
2018-Feb-14 04:00N 37°58' E 023°33'0 0.0
2018-Feb-14 03:30N 37°58' E 023°33'0 0.0
2018-Feb-14 03:00N 37°58' E 023°33'0 0.0
2018-Feb-14 02:30N 37°58' E 023°33'0 0.0
2018-Feb-14 02:00N 37°58' E 023°33'0 0.0
2018-Feb-14 01:30N 37°58' E 023°33'0 0.0
2018-Feb-14 01:00N 37°58' E 023°33'0 0.0
2018-Feb-14 00:30N 37°58' E 023°33'0 0.0
2018-Feb-14 00:00N 37°58' E 023°33'0 0.0
2018-Feb-13 23:30N 37°58' E 023°33'0 0.0
2018-Feb-13 23:00N 37°58' E 023°33'0 0.0
2018-Feb-13 22:30N 37°58' E 023°33'0 0.0
2018-Feb-13 22:00N 37°58' E 023°33'0 0.0
2018-Feb-13 21:30N 37°58' E 023°33'0 0.0
2018-Feb-13 21:00N 37°58' E 023°33'0 0.0
2018-Feb-13 20:30N 37°58' E 023°33'0 0.0
2018-Feb-13 20:00N 37°58' E 023°33'0 0.0
2018-Feb-13 19:30N 37°58' E 023°33'0 0.0
2018-Feb-13 19:00N 37°58' E 023°33'0 0.0
2018-Feb-13 18:30N 37°58' E 023°33'0 0.0
2018-Feb-13 18:00N 37°58' E 023°33'0 0.0
2018-Feb-13 17:30N 37°58' E 023°33'0 0.0
2018-Feb-13 17:00N 37°58' E 023°33'0 0.0
2018-Feb-13 16:30N 37°58' E 023°33'0 0.0
2018-Feb-13 16:00N 37°58' E 023°33'0 0.0
2018-Feb-13 15:30N 37°58' E 023°33'0 0.0
2018-Feb-13 15:00N 37°58' E 023°33'0 0.0
2018-Feb-13 14:30N 37°58' E 023°33'2 3.3
2018-Feb-13 14:00N 37°57' E 023°35'4 7.9
2018-Feb-13 13:30N 37°53' E 023°32'4 7.6
2018-Feb-13 13:00N 37°50' E 023°30'3 6.9
2018-Feb-13 12:30N 37°47' E 023°28'0 0.4
2018-Feb-13 12:00N 37°46' E 023°28'0 0.0
2018-Feb-13 11:30N 37°46' E 023°28'0 0.0
2018-Feb-13 11:00N 37°46' E 023°28'0 0.0
2018-Feb-13 10:30N 37°46' E 023°28'0 0.0
2018-Feb-13 10:00N 37°46' E 023°28'0 0.0
2018-Feb-13 09:30N 37°46' E 023°28'0 0.0
2018-Feb-13 09:00N 37°46' E 023°28'0 0.0
2018-Feb-13 08:30N 37°46' E 023°28'0 0.0
2018-Feb-13 08:00N 37°46' E 023°28'0 0.1
2018-Feb-13 07:30N 37°46' E 023°28'3 5.2
2018-Feb-13 07:00N 37°49' E 023°30'4 7.0
2018-Feb-13 06:30N 37°52' E 023°32'3 6.6
2018-Feb-13 06:00N 37°54' E 023°34'3 5.1
2018-Feb-13 05:30N 37°57' E 023°35'2 3.4
2018-Feb-13 05:01N 37°58' E 023°33'0 0.2
2018-Feb-13 04:30N 37°58' E 023°33'0 0.0
2018-Feb-13 04:00N 37°58' E 023°33'0 0.0
2018-Feb-13 03:30N 37°58' E 023°33'0 0.0
2018-Feb-13 03:00N 37°58' E 023°33'0 0.0
2018-Feb-13 02:30N 37°58' E 023°33'0 0.0
2018-Feb-13 02:00N 37°58' E 023°33'0 0.0
2018-Feb-13 01:30N 37°58' E 023°33'0 0.0
2018-Feb-13 01:00N 37°58' E 023°33'0 0.0
2018-Feb-13 00:30N 37°58' E 023°33'0 0.0
2018-Feb-13 00:00N 37°58' E 023°33'0 0.0
2018-Feb-12 23:30N 37°58' E 023°33'0 0.0
2018-Feb-12 23:00N 37°58' E 023°33'0 0.0
2018-Feb-12 22:30N 37°58' E 023°33'0 0.0
2018-Feb-12 22:00N 37°58' E 023°33'0 0.0
2018-Feb-12 21:30N 37°58' E 023°33'0 0.0
2018-Feb-12 21:00N 37°58' E 023°33'0 0.0
2018-Feb-12 20:30N 37°58' E 023°33'0 0.0
2018-Feb-12 20:00N 37°58' E 023°33'0 0.0
2018-Feb-12 19:30N 37°58' E 023°33'0 0.0
2018-Feb-12 19:00N 37°58' E 023°33'0 0.0
2018-Feb-12 18:30N 37°58' E 023°33'0 0.0
2018-Feb-12 18:00N 37°58' E 023°33'0 0.0
2018-Feb-12 17:30N 37°58' E 023°33'0 0.0
2018-Feb-12 17:01N 37°58' E 023°33'0 0.0
2018-Feb-12 16:30N 37°58' E 023°33'0 0.0
2018-Feb-12 16:00N 37°58' E 023°33'0 0.0
2018-Feb-12 15:30N 37°58' E 023°33'0 0.0
2018-Feb-12 15:00N 37°58' E 023°33'1 1.2
2018-Feb-12 14:30N 37°57' E 023°34'3 5.8
2018-Feb-12 14:00N 37°54' E 023°34'3 7.0
2018-Feb-12 13:30N 37°51' E 023°31'4 7.3
2018-Feb-12 13:00N 37°48' E 023°29'2 3.7
2018-Feb-12 12:30N 37°46' E 023°28'0 0.1
2018-Feb-12 12:00N 37°46' E 023°28'0 0.0
2018-Feb-12 11:30N 37°46' E 023°28'0 0.0
2018-Feb-12 11:00N 37°46' E 023°28'0 0.0
2018-Feb-12 10:30N 37°46' E 023°28'0 0.0
2018-Feb-12 10:00N 37°46' E 023°28'0 0.0
2018-Feb-12 09:30N 37°46' E 023°28'0 0.0
2018-Feb-12 09:00N 37°46' E 023°28'0 0.0
2018-Feb-12 08:30N 37°46' E 023°28'0 0.0
2018-Feb-12 08:00N 37°46' E 023°28'0 0.1
2018-Feb-12 07:30N 37°47' E 023°28'3 5.2
2018-Feb-12 07:00N 37°49' E 023°30'3 7.0
2018-Feb-12 06:30N 37°52' E 023°32'3 6.8
2018-Feb-12 06:00N 37°55' E 023°34'2 4.9
2018-Feb-12 05:30N 37°57' E 023°34'0 0.8
2018-Feb-12 05:00N 37°58' E 023°33'0 0.0
2018-Feb-12 04:30N 37°58' E 023°33'0 0.0
2018-Feb-12 04:00N 37°58' E 023°33'0 0.0
2018-Feb-12 03:30N 37°58' E 023°33'0 0.0
2018-Feb-12 03:00N 37°58' E 023°33'0 0.0
2018-Feb-12 02:30N 37°58' E 023°33'0 0.0
2018-Feb-12 02:00N 37°58' E 023°33'0 0.0
2018-Feb-12 01:30N 37°58' E 023°33'0 0.0
2018-Feb-12 01:00N 37°58' E 023°33'0 0.0
2018-Feb-12 00:30N 37°58' E 023°33'0 0.0
2018-Feb-12 00:00N 37°58' E 023°33'0 0.0
2018-Feb-11 23:30N 37°58' E 023°33'0 0.0
2018-Feb-11 23:00N 37°58' E 023°33'0 0.0
2018-Feb-11 22:30N 37°58' E 023°33'0 0.0
2018-Feb-11 22:00N 37°58' E 023°33'0 0.0
2018-Feb-11 21:30N 37°58' E 023°33'0 0.0
2018-Feb-11 21:00N 37°58' E 023°33'0 0.0
2018-Feb-11 20:30N 37°58' E 023°33'0 0.0
2018-Feb-11 20:00N 37°58' E 023°33'0 0.0
2018-Feb-11 19:30N 37°58' E 023°33'0 0.0
2018-Feb-11 19:00N 37°58' E 023°33'0 0.0
2018-Feb-11 18:30N 37°58' E 023°33'0 0.0
2018-Feb-11 18:00N 37°58' E 023°33'0 0.0
2018-Feb-11 17:30N 37°58' E 023°33'0 0.0
2018-Feb-11 17:00N 37°58' E 023°33'0 0.0
2018-Feb-11 16:30N 37°58' E 023°33'0 0.0
2018-Feb-11 16:00N 37°58' E 023°33'0 0.0
2018-Feb-11 15:30N 37°58' E 023°33'0 0.0
2018-Feb-11 15:00N 37°58' E 023°33'0 0.0
2018-Feb-11 14:30N 37°58' E 023°33'0 0.0
2018-Feb-11 14:00N 37°58' E 023°33'0 0.0
2018-Feb-11 13:30N 37°58' E 023°33'0 0.0
2018-Feb-11 13:00N 37°58' E 023°33'0 0.0
2018-Feb-11 12:30N 37°58' E 023°33'0 0.0
2018-Feb-11 12:00N 37°58' E 023°33'0 0.0
2018-Feb-11 11:30N 37°58' E 023°33'0 0.0
2018-Feb-11 11:00N 37°58' E 023°33'0 0.0
2018-Feb-11 10:30N 37°58' E 023°33'0 0.0
2018-Feb-11 10:00N 37°58' E 023°33'0 0.0
2018-Feb-11 09:30N 37°58' E 023°33'0 0.0
2018-Feb-11 09:00N 37°58' E 023°33'0 0.0
2018-Feb-11 08:30N 37°58' E 023°33'0 0.0
2018-Feb-11 08:00N 37°58' E 023°33'0 0.0
2018-Feb-11 07:30N 37°58' E 023°33'0 0.0
2018-Feb-11 07:00N 37°58' E 023°33'0 0.0
2018-Feb-11 06:30N 37°58' E 023°33'0 0.0
2018-Feb-11 06:01N 37°58' E 023°33'0 0.0
2018-Feb-11 05:30N 37°58' E 023°33'0 0.0
2018-Feb-11 05:00N 37°58' E 023°33'0 0.0
2018-Feb-11 04:30N 37°58' E 023°33'0 0.0
2018-Feb-11 04:01N 37°58' E 023°33'0 0.0
2018-Feb-11 03:30N 37°58' E 023°33'0 0.0
2018-Feb-11 03:00N 37°58' E 023°33'0 0.0
2018-Feb-11 02:30N 37°58' E 023°33'0 0.0
2018-Feb-11 02:00N 37°58' E 023°33'0 0.0
2018-Feb-11 01:30N 37°58' E 023°33'0 0.0
2018-Feb-11 01:00N 37°58' E 023°33'0 0.0
2018-Feb-11 00:30N 37°58' E 023°33'0 0.0
2018-Feb-11 00:00N 37°58' E 023°33'0 0.0
2018-Feb-10 23:30N 37°58' E 023°33'0 0.0
2018-Feb-10 23:00N 37°58' E 023°33'0 0.0
2018-Feb-10 22:30N 37°58' E 023°33'0 0.0
2018-Feb-10 22:00N 37°58' E 023°33'0 0.0
2018-Feb-10 21:30N 37°58' E 023°33'0 0.0
2018-Feb-10 21:00N 37°58' E 023°33'0 0.0
2018-Feb-10 20:30N 37°58' E 023°33'0 0.0
2018-Feb-10 20:00N 37°58' E 023°33'0 0.0
2018-Feb-10 19:30N 37°58' E 023°33'0 0.0
2018-Feb-10 19:00N 37°58' E 023°33'0 0.0
2018-Feb-10 18:30N 37°58' E 023°33'0 0.0
2018-Feb-10 18:00N 37°58' E 023°33'0 0.0
2018-Feb-10 17:30N 37°58' E 023°33'0 0.0
2018-Feb-10 17:00N 37°58' E 023°33'0 0.0
2018-Feb-10 16:30N 37°58' E 023°33'0 0.0
2018-Feb-10 16:00N 37°58' E 023°33'0 0.0
2018-Feb-10 15:30N 37°58' E 023°33'0 0.0
2018-Feb-10 15:00N 37°58' E 023°33'1 1.3
2018-Feb-10 14:30N 37°57' E 023°34'3 5.5
2018-Feb-10 14:00N 37°55' E 023°33'3 6.6
2018-Feb-10 13:30N 37°51' E 023°32'3 6.6
2018-Feb-10 13:00N 37°49' E 023°29'2 4.9
2018-Feb-10 12:30N 37°47' E 023°28'0 0.1
2018-Feb-10 12:00N 37°46' E 023°28'0 0.0
2018-Feb-10 11:30N 37°46' E 023°28'0 0.0
2018-Feb-10 11:00N 37°46' E 023°28'0 0.0
2018-Feb-10 10:30N 37°46' E 023°28'0 0.0
2018-Feb-10 10:00N 37°46' E 023°28'0 0.0
2018-Feb-10 09:30N 37°46' E 023°28'0 0.0
2018-Feb-10 09:00N 37°46' E 023°28'0 0.0
2018-Feb-10 08:30N 37°46' E 023°28'0 0.1
2018-Feb-10 08:00N 37°46' E 023°28'3 5.4
2018-Feb-10 07:30N 37°49' E 023°29'4 7.3
2018-Feb-10 07:00N 37°52' E 023°32'3 6.9
2018-Feb-10 06:30N 37°55' E 023°34'2 4.5
2018-Feb-10 06:00N 37°57' E 023°33'0 0.6
2018-Feb-10 05:30N 37°58' E 023°33'0 0.0
2018-Feb-10 05:00N 37°58' E 023°33'0 0.0
2018-Feb-09 17:00N 37°58' E 023°33'0 0.0
2018-Feb-09 16:30N 37°58' E 023°33'0 0.0
2018-Feb-09 16:00N 37°58' E 023°33'1 2.0
2018-Feb-09 15:30N 37°57' E 023°34'3 6.8
2018-Feb-09 15:00N 37°54' E 023°34'4 7.5
2018-Feb-09 14:30N 37°50' E 023°31'4 7.4
2018-Feb-09 14:00N 37°47' E 023°29'1 2.1
2018-Feb-09 13:30N 37°47' E 023°28'0 0.1
2018-Feb-09 13:00N 37°46' E 023°28'0 0.0
2018-Feb-09 12:30N 37°46' E 023°28'0 0.0
2018-Feb-09 11:30N 37°46' E 023°28'0 0.0
2018-Feb-09 10:30N 37°46' E 023°28'0 0.0
2018-Feb-09 09:30N 37°46' E 023°28'0 0.0
2018-Feb-09 09:00N 37°46' E 023°28'1 2.2
2018-Feb-09 08:30N 37°47' E 023°29'4 7.2
2018-Feb-09 08:00N 37°50' E 023°31'4 7.2
2018-Feb-09 07:30N 37°54' E 023°34'3 6.8
2018-Feb-09 07:00N 37°56' E 023°36'2 4.9
2018-Feb-09 06:30N 37°58' E 023°33'0 0.3
2018-Feb-09 06:00N 37°58' E 023°33'0 0.0
2018-Feb-09 05:30N 37°58' E 023°33'0 0.3
2018-Feb-09 05:01N 37°58' E 023°33'0 0.3
2018-Feb-09 04:31N 37°58' E 023°33'0 0.0
2018-Feb-09 04:01N 37°58' E 023°33'0 0.0
2018-Feb-09 03:30N 37°58' E 023°33'0 0.0
2018-Feb-09 03:00N 37°58' E 023°33'0 0.0
2018-Feb-09 02:00N 37°58' E 023°33'0 0.0
2018-Feb-09 00:30N 37°58' E 023°33'0 0.0
2018-Feb-09 00:00N 37°58' E 023°33'0 0.0
2018-Feb-08 23:00N 37°58' E 023°33'0 0.0
2018-Feb-08 22:30N 37°58' E 023°33'0 0.0
2018-Feb-08 22:00N 37°58' E 023°33'0 0.0
2018-Feb-08 21:30N 37°58' E 023°33'0 0.0
2018-Feb-08 21:00N 37°58' E 023°33'0 0.0
2018-Feb-08 20:30N 37°58' E 023°33'0 0.0
2018-Feb-08 20:00N 37°58' E 023°33'0 0.0
2018-Feb-08 19:30N 37°58' E 023°33'0 0.0
2018-Feb-08 18:30N 37°58' E 023°33'0 0.0
2018-Feb-08 17:30N 37°58' E 023°33'0 0.0
2018-Feb-08 17:00N 37°58' E 023°33'0 0.0
2018-Feb-08 16:30N 37°58' E 023°33'0 0.0
2018-Feb-08 16:00N 37°58' E 023°33'0 0.0
2018-Feb-08 15:30N 37°58' E 023°33'0 0.0
2018-Feb-08 15:00N 37°58' E 023°33'0 0.0
2018-Feb-08 14:30N 37°58' E 023°33'2 2.4
2018-Feb-08 13:30N 37°55' E 023°34'4 7.2
2018-Feb-08 13:00N 37°52' E 023°32'4 7.6
2018-Feb-08 12:30N 37°49' E 023°30'3 5.3
2018-Feb-08 12:00N 37°46' E 023°28'0 0.1
2018-Feb-08 11:30N 37°46' E 023°28'0 0.0
2018-Feb-08 11:00N 37°46' E 023°28'0 0.0
2018-Feb-08 09:30N 37°46' E 023°28'0 0.0
2018-Feb-08 09:00N 37°46' E 023°28'0 0.0
2018-Feb-08 08:30N 37°46' E 023°28'0 0.0
2018-Feb-08 08:00N 37°46' E 023°28'0 0.0
2018-Feb-08 07:30N 37°46' E 023°28'0 0.5
2018-Feb-08 07:00N 37°47' E 023°28'3 6.7
2018-Feb-08 06:30N 37°50' E 023°30'8 5.5
2018-Feb-08 05:00N 37°58' E 023°33'0 0.2
2018-Feb-08 04:00N 37°58' E 023°33'0 0.0
2018-Feb-08 03:30N 37°58' E 023°33'  
Track history (hours):
 
Tides and Currents Weather Stations Pressure Air Temp Water Temp Dewpoint Dewpoint Depression Visibility Wind Speed Wind Dir Waves Ship Positions

Georgios L

Last reported at 2018-Feb-18 01:30 UTC. Time now 2018-Feb-18 01:42 UTC.
Position N 37°58' E 023°33'.

Length 86 m; draft 6.3 m.

Type: Tanker. MMSI: 239512000.

Date/timePositionNaut miles runAvg speedWind from/ knotsBaromVisibWave heightAir tempDewpointWater temp
2018-Feb-18 01:30N 37°58' E 023°33'0 0.0
2018-Feb-18 01:01N 37°58' E 023°33'0 0.0
2018-Feb-18 00:31N 37°58' E 023°33'0 0.0
2018-Feb-18 00:01N 37°58' E 023°33'0 0.0
2018-Feb-17 23:30N 37°58' E 023°33'0 0.0
2018-Feb-17 23:00N 37°58' E 023°33'0 0.0
2018-Feb-17 22:30N 37°58' E 023°33'0 0.0
2018-Feb-17 22:01N 37°58' E 023°33'0 0.0
2018-Feb-17 21:30N 37°58' E 023°33'0 0.0
2018-Feb-17 21:00N 37°58' E 023°33'0 0.0
2018-Feb-17 20:30N 37°58' E 023°33'0 0.0
2018-Feb-17 20:00N 37°58' E 023°33'0 0.0
2018-Feb-17 19:31N 37°58' E 023°33'0 0.0
2018-Feb-17 19:00N 37°58' E 023°33'0 0.0
2018-Feb-17 18:30N 37°58' E 023°33'0 0.0
2018-Feb-17 18:01N 37°58' E 023°33'0 0.0
2018-Feb-17 17:30N 37°58' E 023°33'0 0.0
2018-Feb-17 17:00N 37°58' E 023°33'0 0.0
2018-Feb-17 16:30N 37°58' E 023°33'0 0.0
2018-Feb-17 16:00N 37°58' E 023°33'0 0.0
2018-Feb-17 15:30N 37°58' E 023°33'0 0.0
2018-Feb-17 15:00N 37°58' E 023°33'2 3.6
2018-Feb-17 14:30N 37°56' E 023°35'4 7.1
2018-Feb-17 14:00N 37°53' E 023°33'3 6.2
2018-Feb-17 13:30N 37°50' E 023°31'4 6.9
2018-Feb-17 13:00N 37°47' E 023°29'1 1.7
2018-Feb-17 12:30N 37°46' E 023°28'0 0.1
2018-Feb-17 12:00N 37°46' E 023°28'0 0.0
2018-Feb-17 11:30N 37°46' E 023°28'0 0.0
2018-Feb-17 11:00N 37°46' E 023°28'0 0.0
2018-Feb-17 10:30N 37°46' E 023°28'0 0.0
2018-Feb-17 10:00N 37°46' E 023°28'0 0.0
2018-Feb-17 09:30N 37°46' E 023°28'0 0.0
2018-Feb-17 09:00N 37°46' E 023°28'0 0.0
2018-Feb-17 08:30N 37°46' E 023°28'0 0.0
2018-Feb-17 08:00N 37°46' E 023°28'0 0.0
2018-Feb-17 07:30N 37°46' E 023°28'1 2.8
2018-Feb-17 07:00N 37°48' E 023°29'3 6.5
2018-Feb-17 06:30N 37°51' E 023°31'3 6.5
2018-Feb-17 06:01N 37°53' E 023°33'4 7.2
2018-Feb-17 05:30N 37°57' E 023°35'2 3.1
2018-Feb-17 05:00N 37°58' E 023°33'0 0.1
2018-Feb-17 04:30N 37°58' E 023°33'0 0.0
2018-Feb-17 04:00N 37°58' E 023°33'0 0.0
2018-Feb-17 03:30N 37°58' E 023°33'0 0.0
2018-Feb-17 03:00N 37°58' E 023°33'0 0.0
2018-Feb-17 02:31N 37°58' E 023°33'0 0.0
2018-Feb-17 02:00N 37°58' E 023°33'0 0.0
2018-Feb-17 01:30N 37°58' E 023°33'0 0.0
2018-Feb-17 01:00N 37°58' E 023°33'0 0.0
2018-Feb-17 00:30N 37°58' E 023°33'0 0.0
2018-Feb-17 00:00N 37°58' E 023°33'0 0.0
2018-Feb-16 23:31N 37°58' E 023°33'0 0.0
2018-Feb-16 23:00N 37°58' E 023°33'0 0.0
2018-Feb-16 22:31N 37°58' E 023°33'0 0.0
2018-Feb-16 22:00N 37°58' E 023°33'0 0.0
2018-Feb-16 21:30N 37°58' E 023°33'0 0.0
2018-Feb-16 21:01N 37°58' E 023°33'0 0.0
2018-Feb-16 20:31N 37°58' E 023°33'0 0.0
2018-Feb-16 20:01N 37°58' E 023°33'0 0.0
2018-Feb-16 19:31N 37°58' E 023°33'0 0.0
2018-Feb-16 19:01N 37°58' E 023°33'0 0.0
2018-Feb-16 18:30N 37°58' E 023°33'0 0.0
2018-Feb-16 18:00N 37°58' E 023°33'0 0.0
2018-Feb-16 17:31N 37°58' E 023°33'0 0.0
2018-Feb-16 17:01N 37°58' E 023°33'0 0.0
2018-Feb-16 16:30N 37°58' E 023°33'0 0.0
2018-Feb-16 16:00N 37°58' E 023°33'0 0.0
2018-Feb-16 15:31N 37°58' E 023°33'0 0.0
2018-Feb-16 15:00N 37°58' E 023°33'0 0.0
2018-Feb-16 14:30N 37°58' E 023°33'0 0.0
2018-Feb-16 14:01N 37°58' E 023°33'0 0.0
2018-Feb-16 13:31N 37°58' E 023°33'2 3.7
2018-Feb-16 13:01N 37°56' E 023°35'2 3.5
2018-Feb-16 12:31N 37°54' E 023°34'2 4.3
2018-Feb-16 12:01N 37°53' E 023°33'3 5.6
2018-Feb-16 11:31N 37°50' E 023°31'3 6.1
2018-Feb-16 11:00N 37°48' E 023°29'1 2.7
2018-Feb-16 10:30N 37°46' E 023°28'0 0.1
2018-Feb-16 10:00N 37°46' E 023°28'0 0.0
2018-Feb-16 09:30N 37°46' E 023°28'0 0.0
2018-Feb-16 09:01N 37°46' E 023°28'0 0.0
2018-Feb-16 08:31N 37°46' E 023°28'0 0.1
2018-Feb-16 08:01N 37°47' E 023°28'0 0.1
2018-Feb-16 07:30N 37°46' E 023°28'1 1.7
2018-Feb-16 07:01N 37°47' E 023°29'4 7.2
2018-Feb-16 06:30N 37°50' E 023°31'3 6.6
2018-Feb-16 06:00N 37°53' E 023°33'3 6.8
2018-Feb-16 05:31N 37°56' E 023°35'2 3.3
2018-Feb-16 05:00N 37°58' E 023°33'0 0.1
2018-Feb-16 04:30N 37°58' E 023°33'0 0.0
2018-Feb-16 04:00N 37°58' E 023°33'0 0.0
2018-Feb-16 03:30N 37°58' E 023°33'0 0.0
2018-Feb-16 03:01N 37°58' E 023°33'0 0.0
2018-Feb-16 02:31N 37°58' E 023°33'0 0.0
2018-Feb-16 02:00N 37°58' E 023°33'0 0.0
2018-Feb-16 01:31N 37°58' E 023°33'0 0.0
2018-Feb-16 01:00N 37°58' E 023°33'0 0.0
2018-Feb-16 00:31N 37°58' E 023°33'0 0.0
2018-Feb-16 00:00N 37°58' E 023°33'0 0.0
2018-Feb-15 23:31N 37°58' E 023°33'0 0.0
2018-Feb-15 23:01N 37°58' E 023°33'0 0.0
2018-Feb-15 22:30N 37°58' E 023°33'0 0.0
2018-Feb-15 22:01N 37°58' E 023°33'0 0.0
2018-Feb-15 21:30N 37°58' E 023°33'0 0.0
2018-Feb-15 21:00N 37°58' E 023°33'0 0.0
2018-Feb-15 20:31N 37°58' E 023°33'0 0.0
2018-Feb-15 20:01N 37°58' E 023°33'0 0.0
2018-Feb-15 19:30N 37°58' E 023°33'0 0.0
2018-Feb-15 19:00N 37°58' E 023°33'0 0.0
2018-Feb-15 18:30N 37°58' E 023°33'0 0.0
2018-Feb-15 18:01N 37°58' E 023°33'0 0.0
2018-Feb-15 17:30N 37°58' E 023°33'0 0.0
2018-Feb-15 17:01N 37°58' E 023°33'0 0.0
2018-Feb-15 16:30N 37°58' E 023°33'0 0.0
2018-Feb-15 16:01N 37°58' E 023°33'0 0.0
2018-Feb-15 15:31N 37°58' E 023°33'0 0.0
2018-Feb-15 15:00N 37°58' E 023°33'0 0.0
2018-Feb-15 14:31N 37°58' E 023°33'0 0.0
2018-Feb-15 14:01N 37°58' E 023°33'0 0.0
2018-Feb-15 13:31N 37°58' E 023°33'0 0.0
2018-Feb-15 13:00N 37°58' E 023°33'0 0.0
2018-Feb-15 12:30N 37°58' E 023°33'0 0.0
2018-Feb-15 12:01N 37°58' E 023°33'0 0.0
2018-Feb-15 11:30N 37°58' E 023°33'0 0.0
2018-Feb-15 11:00N 37°58' E 023°33'0 0.0
2018-Feb-15 10:31N 37°58' E 023°33'0 0.0
2018-Feb-15 10:00N 37°58' E 023°33'0 0.0
2018-Feb-15 09:31N 37°58' E 023°33'0 0.0
2018-Feb-15 09:01N 37°58' E 023°33'0 0.0
2018-Feb-15 08:30N 37°58' E 023°33'0 0.0
2018-Feb-15 08:00N 37°58' E 023°33'0 0.0
2018-Feb-15 07:30N 37°58' E 023°33'0 0.0
2018-Feb-15 07:01N 37°58' E 023°33'0 0.0
2018-Feb-15 06:30N 37°58' E 023°33'0 0.0
2018-Feb-15 06:00N 37°58' E 023°33'0 0.0
2018-Feb-15 05:31N 37°58' E 023°33'0 0.0
2018-Feb-15 04:56N 37°58' E 023°33'0 0.0
2018-Feb-15 04:30N 37°58' E 023°33'0 0.0
2018-Feb-15 04:00N 37°58' E 023°33'0 0.0
2018-Feb-15 03:30N 37°58' E 023°33'0 0.0
2018-Feb-15 03:00N 37°58' E 023°33'0 0.0
2018-Feb-15 02:26N 37°58' E 023°33'0 0.0
2018-Feb-15 02:00N 37°58' E 023°33'0 0.0
2018-Feb-15 01:30N 37°58' E 023°33'0 0.0
2018-Feb-15 00:59N 37°58' E 023°33'0 0.0
2018-Feb-15 00:30N 37°58' E 023°33'0 0.0
2018-Feb-15 00:00N 37°58' E 023°33'0 0.0
2018-Feb-14 23:30N 37°58' E 023°33'0 0.0
2018-Feb-14 23:00N 37°58' E 023°33'0 0.0
2018-Feb-14 22:30N 37°58' E 023°33'0 0.0
2018-Feb-14 21:57N 37°58' E 023°33'0 0.0
2018-Feb-14 21:27N 37°58' E 023°33'0 0.0
2018-Feb-14 21:00N 37°58' E 023°33'0 0.0
2018-Feb-14 20:30N 37°58' E 023°33'0 0.0
2018-Feb-14 20:00N 37°58' E 023°33'0 0.0
2018-Feb-14 19:30N 37°58' E 023°33'0 0.0
2018-Feb-14 19:00N 37°58' E 023°33'0 0.0
2018-Feb-14 18:30N 37°58' E 023°33'0 0.0
2018-Feb-14 18:00N 37°58' E 023°33'0 0.0
2018-Feb-14 17:30N 37°58' E 023°33'0 0.0
2018-Feb-14 17:00N 37°58' E 023°33'0 0.0
2018-Feb-14 16:30N 37°58' E 023°33'0 0.0
2018-Feb-14 16:00N 37°58' E 023°33'0 0.0
2018-Feb-14 15:30N 37°58' E 023°33'1 2.1
2018-Feb-14 15:00N 37°57' E 023°34'3 6.2
2018-Feb-14 14:30N 37°54' E 023°33'3 7.0
2018-Feb-14 14:00N 37°51' E 023°31'4 7.8
2018-Feb-14 13:30N 37°48' E 023°29'1 2.4
2018-Feb-14 13:00N 37°47' E 023°28'0 0.1
2018-Feb-14 12:30N 37°46' E 023°28'0 0.0
2018-Feb-14 12:00N 37°46' E 023°28'0 0.0
2018-Feb-14 11:30N 37°46' E 023°28'0 0.0
2018-Feb-14 11:00N 37°46' E 023°28'0 0.0
2018-Feb-14 10:30N 37°46' E 023°28'0 0.0
2018-Feb-14 10:00N 37°46' E 023°28'0 0.0
2018-Feb-14 09:30N 37°46' E 023°28'0 0.0
2018-Feb-14 09:00N 37°46' E 023°28'0 0.0
2018-Feb-14 08:30N 37°46' E 023°28'0 0.1
2018-Feb-14 08:00N 37°47' E 023°28'1 1.6
2018-Feb-14 07:30N 37°47' E 023°29'3 6.8
2018-Feb-14 07:00N 37°50' E 023°31'3 6.3
2018-Feb-14 06:30N 37°53' E 023°33'3 6.8
2018-Feb-14 06:00N 37°56' E 023°35'2 4.7
2018-Feb-14 05:30N 37°57' E 023°33'0 0.5
2018-Feb-14 05:00N 37°58' E 023°33'0 0.0
2018-Feb-14 04:30N 37°58' E 023°33'0 0.0
2018-Feb-14 04:00N 37°58' E 023°33'0 0.0
2018-Feb-14 03:30N 37°58' E 023°33'0 0.0
2018-Feb-14 03:00N 37°58' E 023°33'0 0.0
2018-Feb-14 02:30N 37°58' E 023°33'0 0.0
2018-Feb-14 02:00N 37°58' E 023°33'0 0.0
2018-Feb-14 01:30N 37°58' E 023°33'0 0.0
2018-Feb-14 01:00N 37°58' E 023°33'0 0.0
2018-Feb-14 00:30N 37°58' E 023°33'0 0.0
2018-Feb-14 00:00N 37°58' E 023°33'0 0.0
2018-Feb-13 23:30N 37°58' E 023°33'0 0.0
2018-Feb-13 23:00N 37°58' E 023°33'0 0.0
2018-Feb-13 22:30N 37°58' E 023°33'0 0.0
2018-Feb-13 22:00N 37°58' E 023°33'0 0.0
2018-Feb-13 21:30N 37°58' E 023°33'0 0.0
2018-Feb-13 21:00N 37°58' E 023°33'0 0.0
2018-Feb-13 20:30N 37°58' E 023°33'0 0.0
2018-Feb-13 20:00N 37°58' E 023°33'0 0.0
2018-Feb-13 19:30N 37°58' E 023°33'0 0.0
2018-Feb-13 19:00N 37°58' E 023°33'0 0.0
2018-Feb-13 18:30N 37°58' E 023°33'0 0.0
2018-Feb-13 18:00N 37°58' E 023°33'0 0.0
2018-Feb-13 17:30N 37°58' E 023°33'0 0.0
2018-Feb-13 17:00N 37°58' E 023°33'0 0.0
2018-Feb-13 16:30N 37°58' E 023°33'0 0.0
2018-Feb-13 16:00N 37°58' E 023°33'0 0.0
2018-Feb-13 15:30N 37°58' E 023°33'0 0.0
2018-Feb-13 15:00N 37°58' E 023°33'0 0.0
2018-Feb-13 14:30N 37°58' E 023°33'2 3.3
2018-Feb-13 14:00N 37°57' E 023°35'4 7.9
2018-Feb-13 13:30N 37°53' E 023°32'4 7.6
2018-Feb-13 13:00N 37°50' E 023°30'3 6.9
2018-Feb-13 12:30N 37°47' E 023°28'0 0.4
2018-Feb-13 12:00N 37°46' E 023°28'0 0.0
2018-Feb-13 11:30N 37°46' E 023°28'0 0.0
2018-Feb-13 11:00N 37°46' E 023°28'0 0.0
2018-Feb-13 10:30N 37°46' E 023°28'0 0.0
2018-Feb-13 10:00N 37°46' E 023°28'0 0.0
2018-Feb-13 09:30N 37°46' E 023°28'0 0.0
2018-Feb-13 09:00N 37°46' E 023°28'0 0.0
2018-Feb-13 08:30N 37°46' E 023°28'0 0.0
2018-Feb-13 08:00N 37°46' E 023°28'0 0.1
2018-Feb-13 07:30N 37°46' E 023°28'3 5.2
2018-Feb-13 07:00N 37°49' E 023°30'4 7.0
2018-Feb-13 06:30N 37°52' E 023°32'3 6.6
2018-Feb-13 06:00N 37°54' E 023°34'3 5.1
2018-Feb-13 05:30N 37°57' E 023°35'2 3.4
2018-Feb-13 05:01N 37°58' E 023°33'0 0.2
2018-Feb-13 04:30N 37°58' E 023°33'0 0.0
2018-Feb-13 04:00N 37°58' E 023°33'0 0.0
2018-Feb-13 03:30N 37°58' E 023°33'0 0.0
2018-Feb-13 03:00N 37°58' E 023°33'0 0.0
2018-Feb-13 02:30N 37°58' E 023°33'0 0.0
2018-Feb-13 02:00N 37°58' E 023°33'0 0.0
2018-Feb-13 01:30N 37°58' E 023°33'0 0.0
2018-Feb-13 01:00N 37°58' E 023°33'0 0.0
2018-Feb-13 00:30N 37°58' E 023°33'0 0.0
2018-Feb-13 00:00N 37°58' E 023°33'0 0.0
2018-Feb-12 23:30N 37°58' E 023°33'0 0.0
2018-Feb-12 23:00N 37°58' E 023°33'0 0.0
2018-Feb-12 22:30N 37°58' E 023°33'0 0.0
2018-Feb-12 22:00N 37°58' E 023°33'0 0.0
2018-Feb-12 21:30N 37°58' E 023°33'0 0.0
2018-Feb-12 21:00N 37°58' E 023°33'0 0.0
2018-Feb-12 20:30N 37°58' E 023°33'0 0.0
2018-Feb-12 20:00N 37°58' E 023°33'0 0.0
2018-Feb-12 19:30N 37°58' E 023°33'0 0.0
2018-Feb-12 19:00N 37°58' E 023°33'0 0.0
2018-Feb-12 18:30N 37°58' E 023°33'0 0.0
2018-Feb-12 18:00N 37°58' E 023°33'0 0.0
2018-Feb-12 17:30N 37°58' E 023°33'0 0.0
2018-Feb-12 17:01N 37°58' E 023°33'0 0.0
2018-Feb-12 16:30N 37°58' E 023°33'0 0.0
2018-Feb-12 16:00N 37°58' E 023°33'0 0.0
2018-Feb-12 15:30N 37°58' E 023°33'0 0.0
2018-Feb-12 15:00N 37°58' E 023°33'1 1.2
2018-Feb-12 14:30N 37°57' E 023°34'3 5.8
2018-Feb-12 14:00N 37°54' E 023°34'3 7.0
2018-Feb-12 13:30N 37°51' E 023°31'4 7.3
2018-Feb-12 13:00N 37°48' E 023°29'2 3.7
2018-Feb-12 12:30N 37°46' E 023°28'0 0.1
2018-Feb-12 12:00N 37°46' E 023°28'0 0.0
2018-Feb-12 11:30N 37°46' E 023°28'0 0.0
2018-Feb-12 11:00N 37°46' E 023°28'0 0.0
2018-Feb-12 10:30N 37°46' E 023°28'0 0.0
2018-Feb-12 10:00N 37°46' E 023°28'0 0.0
2018-Feb-12 09:30N 37°46' E 023°28'0 0.0
2018-Feb-12 09:00N 37°46' E 023°28'0 0.0
2018-Feb-12 08:30N 37°46' E 023°28'0 0.0
2018-Feb-12 08:00N 37°46' E 023°28'0 0.1
2018-Feb-12 07:30N 37°47' E 023°28'3 5.2
2018-Feb-12 07:00N 37°49' E 023°30'3 7.0
2018-Feb-12 06:30N 37°52' E 023°32'3 6.8
2018-Feb-12 06:00N 37°55' E 023°34'2 4.9
2018-Feb-12 05:30N 37°57' E 023°34'0 0.8
2018-Feb-12 05:00N 37°58' E 023°33'0 0.0
2018-Feb-12 04:30N 37°58' E 023°33'0 0.0
2018-Feb-12 04:00N 37°58' E 023°33'0 0.0
2018-Feb-12 03:30N 37°58' E 023°33'0 0.0
2018-Feb-12 03:00N 37°58' E 023°33'0 0.0
2018-Feb-12 02:30N 37°58' E 023°33'0 0.0
2018-Feb-12 02:00N 37°58' E 023°33'0 0.0
2018-Feb-12 01:30N 37°58' E 023°33'0 0.0
2018-Feb-12 01:00N 37°58' E 023°33'0 0.0
2018-Feb-12 00:30N 37°58' E 023°33'0 0.0
2018-Feb-12 00:00N 37°58' E 023°33'0 0.0
2018-Feb-11 23:30N 37°58' E 023°33'0 0.0
2018-Feb-11 23:00N 37°58' E 023°33'0 0.0
2018-Feb-11 22:30N 37°58' E 023°33'0 0.0
2018-Feb-11 22:00N 37°58' E 023°33'0 0.0
2018-Feb-11 21:30N 37°58' E 023°33'0 0.0
2018-Feb-11 21:00N 37°58' E 023°33'0 0.0
2018-Feb-11 20:30N 37°58' E 023°33'0 0.0
2018-Feb-11 20:00N 37°58' E 023°33'0 0.0
2018-Feb-11 19:30N 37°58' E 023°33'0 0.0
2018-Feb-11 19:00N 37°58' E 023°33'0 0.0
2018-Feb-11 18:30N 37°58' E 023°33'0 0.0
2018-Feb-11 18:00N 37°58' E 023°33'0 0.0
2018-Feb-11 17:30N 37°58' E 023°33'0 0.0
2018-Feb-11 17:00N 37°58' E 023°33'0 0.0
2018-Feb-11 16:30N 37°58' E 023°33'0 0.0
2018-Feb-11 16:00N 37°58' E 023°33'0 0.0
2018-Feb-11 15:30N 37°58' E 023°33'0 0.0
2018-Feb-11 15:00N 37°58' E 023°33'0 0.0
2018-Feb-11 14:30N 37°58' E 023°33'0 0.0
2018-Feb-11 14:00N 37°58' E 023°33'0 0.0
2018-Feb-11 13:30N 37°58' E 023°33'0 0.0
2018-Feb-11 13:00N 37°58' E 023°33'0 0.0
2018-Feb-11 12:30N 37°58' E 023°33'0 0.0
2018-Feb-11 12:00N 37°58' E 023°33'0 0.0
2018-Feb-11 11:30N 37°58' E 023°33'0 0.0
2018-Feb-11 11:00N 37°58' E 023°33'0 0.0
2018-Feb-11 10:30N 37°58' E 023°33'0 0.0
2018-Feb-11 10:00N 37°58' E 023°33'0 0.0
2018-Feb-11 09:30N 37°58' E 023°33'0 0.0
2018-Feb-11 09:00N 37°58' E 023°33'0 0.0
2018-Feb-11 08:30N 37°58' E 023°33'0 0.0
2018-Feb-11 08:00N 37°58' E 023°33'0 0.0
2018-Feb-11 07:30N 37°58' E 023°33'0 0.0
2018-Feb-11 07:00N 37°58' E 023°33'0 0.0
2018-Feb-11 06:30N 37°58' E 023°33'0 0.0
2018-Feb-11 06:01N 37°58' E 023°33'0 0.0
2018-Feb-11 05:30N 37°58' E 023°33'0 0.0
2018-Feb-11 05:00N 37°58' E 023°33'0 0.0
2018-Feb-11 04:30N 37°58' E 023°33'0 0.0
2018-Feb-11 04:01N 37°58' E 023°33'0 0.0
2018-Feb-11 03:30N 37°58' E 023°33'0 0.0
2018-Feb-11 03:00N 37°58' E 023°33'0 0.0
2018-Feb-11 02:30N 37°58' E 023°33'0 0.0
2018-Feb-11 02:00N 37°58' E 023°33'0 0.0
2018-Feb-11 01:30N 37°58' E 023°33'0 0.0
2018-Feb-11 01:00N 37°58' E 023°33'0 0.0
2018-Feb-11 00:30N 37°58' E 023°33'0 0.0
2018-Feb-11 00:00N 37°58' E 023°33'0 0.0
2018-Feb-10 23:30N 37°58' E 023°33'0 0.0
2018-Feb-10 23:00N 37°58' E 023°33'0 0.0
2018-Feb-10 22:30N 37°58' E 023°33'0 0.0
2018-Feb-10 22:00N 37°58' E 023°33'0 0.0
2018-Feb-10 21:30N 37°58' E 023°33'0 0.0
2018-Feb-10 21:00N 37°58' E 023°33'0 0.0
2018-Feb-10 20:30N 37°58' E 023°33'0 0.0
2018-Feb-10 20:00N 37°58' E 023°33'0 0.0
2018-Feb-10 19:30N 37°58' E 023°33'0 0.0
2018-Feb-10 19:00N 37°58' E 023°33'0 0.0
2018-Feb-10 18:30N 37°58' E 023°33'0 0.0
2018-Feb-10 18:00N 37°58' E 023°33'0 0.0
2018-Feb-10 17:30N 37°58' E 023°33'0 0.0
2018-Feb-10 17:00N 37°58' E 023°33'0 0.0
2018-Feb-10 16:30N 37°58' E 023°33'0 0.0
2018-Feb-10 16:00N 37°58' E 023°33'0 0.0
2018-Feb-10 15:30N 37°58' E 023°33'0 0.0
2018-Feb-10 15:00N 37°58' E 023°33'1 1.3
2018-Feb-10 14:30N 37°57' E 023°34'3 5.5
2018-Feb-10 14:00N 37°55' E 023°33'3 6.6
2018-Feb-10 13:30N 37°51' E 023°32'3 6.6
2018-Feb-10 13:00N 37°49' E 023°29'2 4.9
2018-Feb-10 12:30N 37°47' E 023°28'0 0.1
2018-Feb-10 12:00N 37°46' E 023°28'0 0.0
2018-Feb-10 11:30N 37°46' E 023°28'0 0.0
2018-Feb-10 11:00N 37°46' E 023°28'0 0.0
2018-Feb-10 10:30N 37°46' E 023°28'0 0.0
2018-Feb-10 10:00N 37°46' E 023°28'0 0.0
2018-Feb-10 09:30N 37°46' E 023°28'0 0.0
2018-Feb-10 09:00N 37°46' E 023°28'0 0.0
2018-Feb-10 08:30N 37°46' E 023°28'0 0.1
2018-Feb-10 08:00N 37°46' E 023°28'3 5.4
2018-Feb-10 07:30N 37°49' E 023°29'4 7.3
2018-Feb-10 07:00N 37°52' E 023°32'3 6.9
2018-Feb-10 06:30N 37°55' E 023°34'2 4.5
2018-Feb-10 06:00N 37°57' E 023°33'0 0.6
2018-Feb-10 05:30N 37°58' E 023°33'0 0.0
2018-Feb-10 05:00N 37°58' E 023°33'0 0.0
2018-Feb-09 17:00N 37°58' E 023°33'0 0.0
2018-Feb-09 16:30N 37°58' E 023°33'0 0.0
2018-Feb-09 16:00N 37°58' E 023°33'1 2.0
2018-Feb-09 15:30N 37°57' E 023°34'3 6.8
2018-Feb-09 15:00N 37°54' E 023°34'4 7.5
2018-Feb-09 14:30N 37°50' E 023°31'4 7.4
2018-Feb-09 14:00N 37°47' E 023°29'1 2.1
2018-Feb-09 13:30N 37°47' E 023°28'0 0.1
2018-Feb-09 13:00N 37°46' E 023°28'0 0.0
2018-Feb-09 12:30N 37°46' E 023°28'0 0.0
2018-Feb-09 11:30N 37°46' E 023°28'0 0.0
2018-Feb-09 10:30N 37°46' E 023°28'0 0.0
2018-Feb-09 09:30N 37°46' E 023°28'0 0.0
2018-Feb-09 09:00N 37°46' E 023°28'1 2.2
2018-Feb-09 08:30N 37°47' E 023°29'4 7.2
2018-Feb-09 08:00N 37°50' E 023°31'4 7.2
2018-Feb-09 07:30N 37°54' E 023°34'3 6.8
2018-Feb-09 07:00N 37°56' E 023°36'2 4.9
2018-Feb-09 06:30N 37°58' E 023°33'0 0.3
2018-Feb-09 06:00N 37°58' E 023°33'0 0.0
2018-Feb-09 05:30N 37°58' E 023°33'0 0.3
2018-Feb-09 05:01N 37°58' E 023°33'0 0.3
2018-Feb-09 04:31N 37°58' E 023°33'0 0.0
2018-Feb-09 04:01N 37°58' E 023°33'0 0.0
2018-Feb-09 03:30N 37°58' E 023°33'0 0.0
2018-Feb-09 03:00N 37°58' E 023°33'0 0.0
2018-Feb-09 02:00N 37°58' E 023°33'0 0.0
2018-Feb-09 00:30N 37°58' E 023°33'0 0.0
2018-Feb-09 00:00N 37°58' E 023°33'0 0.0
2018-Feb-08 23:00N 37°58' E 023°33'0 0.0
2018-Feb-08 22:30N 37°58' E 023°33'0 0.0
2018-Feb-08 22:00N 37°58' E 023°33'0 0.0
2018-Feb-08 21:30N 37°58' E 023°33'0 0.0
2018-Feb-08 21:00N 37°58' E 023°33'0 0.0
2018-Feb-08 20:30N 37°58' E 023°33'0 0.0
2018-Feb-08 20:00N 37°58' E 023°33'0 0.0
2018-Feb-08 19:30N 37°58' E 023°33'0 0.0
2018-Feb-08 18:30N 37°58' E 023°33'0 0.0
2018-Feb-08 17:30N 37°58' E 023°33'0 0.0
2018-Feb-08 17:00N 37°58' E 023°33'0 0.0
2018-Feb-08 16:30N 37°58' E 023°33'0 0.0
2018-Feb-08 16:00N 37°58' E 023°33'0 0.0
2018-Feb-08 15:30N 37°58' E 023°33'0 0.0
2018-Feb-08 15:00N 37°58' E 023°33'0 0.0
2018-Feb-08 14:30N 37°58' E 023°33'2 2.4
2018-Feb-08 13:30N 37°55' E 023°34'4 7.2
2018-Feb-08 13:00N 37°52' E 023°32'4 7.6
2018-Feb-08 12:30N 37°49' E 023°30'3 5.3
2018-Feb-08 12:00N 37°46' E 023°28'0 0.1
2018-Feb-08 11:30N 37°46' E 023°28'0 0.0
2018-Feb-08 11:00N 37°46' E 023°28'0 0.0
2018-Feb-08 09:30N 37°46' E 023°28'0 0.0
2018-Feb-08 09:00N 37°46' E 023°28'0 0.0
2018-Feb-08 08:30N 37°46' E 023°28'0 0.0
2018-Feb-08 08:00N 37°46' E 023°28'0 0.0
2018-Feb-08 07:30N 37°46' E 023°28'0 0.5
2018-Feb-08 07:00N 37°47' E 023°28'3 6.7
2018-Feb-08 06:30N 37°50' E 023°30'8 5.5
2018-Feb-08 05:00N 37°58' E 023°33'0 0.2
2018-Feb-08 04:00N 37°58' E 023°33'0 0.0
2018-Feb-08 03:30N 37°58' E 023°33'  

Dump ship's entire track history